Time;durP1;ratioP1;P1;durP2;ratioP2;P2;SDS_P1;SDS_P2;PMS_P1;PMS_P2;Temp;Humidity;BMP_temperature;BMP_pressure;BME280_temperature;BME280_humidity;BME280_pressure;Samples;Min_cycle;Max_cycle;Signal;HPM_P1;HPM_P2
2023/05/10 00:03:35;;;;;;;4.90;2.72;;;;;;;13.76;41.95;99977.97;7750955;32;37083;-86
2023/05/10 00:07:51;;;;;;;5.37;2.70;;;;;;;13.59;42.52;99972.13;7764459;32;40117;-87
2023/05/10 00:12:07;;;;;;;4.45;2.40;;;;;;;13.60;43.07;99969.09;7782775;32;41377;-86
2023/05/10 00:16:24;;;;;;;5.65;2.65;;;;;;;13.20;44.13;99975.69;7791557;32;38514;-87
2023/05/10 00:20:40;;;;;;;5.22;2.85;;;;;;;13.64;43.43;99964.69;7791623;32;37785;-87
2023/05/10 00:24:57;;;;;;;5.68;2.83;;;;;;;13.18;44.64;99961.44;7790247;32;40158;-86
2023/05/10 00:29:13;;;;;;;8.25;2.50;;;;;;;13.73;43.63;99948.44;7791241;32;39933;-86
2023/05/10 00:33:29;;;;;;;4.30;2.70;;;;;;;13.44;44.54;99949.25;7791164;32;37921;-85
2023/05/10 00:37:46;;;;;;;6.35;2.87;;;;;;;13.71;44.66;99953.38;7775746;32;37913;-85
2023/05/10 00:42:03;;;;;;;6.50;2.50;;;;;;;13.75;45.04;99956.37;7764039;32;39327;-87
2023/05/10 00:46:20;;;;;;;4.82;2.53;;;;;;;13.63;45.35;99956.75;7763880;32;40510;-87
2023/05/10 00:50:36;;;;;;;5.87;3.20;;;;;;;13.73;45.45;99956.66;7763688;32;38001;-87
2023/05/10 00:54:53;;;;;;;5.78;3.12;;;;;;;13.74;45.35;99952.00;7763639;32;37043;-88
2023/05/10 00:59:09;;;;;;;4.62;2.83;;;;;;;13.87;45.26;99956.81;7749722;32;39484;-87
2023/05/10 01:03:26;;;;;;;7.07;3.05;;;;;;;13.78;45.76;99956.63;7749696;32;39543;-88
2023/05/10 01:07:42;;;;;;;5.62;3.22;;;;;;;13.75;45.91;99959.94;7763473;32;38810;-87
2023/05/10 01:11:59;;;;;;;5.28;3.62;;;;;;;13.62;46.32;99963.31;7749207;32;37117;-87
2023/05/10 01:16:16;;;;;;;6.10;3.30;;;;;;;14.03;45.29;99954.72;7749292;32;39101;-86
2023/05/10 01:20:39;;;;;;;6.57;3.25;;;;;;;13.97;45.72;99959.44;7762927;32;40765;-86
2023/05/10 01:25:14;;;;;;;7.47;3.15;;;;;;;13.58;46.56;99954.06;7762901;32;37659;-87
2023/05/10 01:30:04;;;;;;;7.12;3.00;;;;;;;13.57;46.44;99958.69;7765229;32;37050;-86
2023/05/10 01:34:41;;;;;;;7.22;3.50;;;;;;;13.11;47.43;99961.81;7790295;32;40212;-86
2023/05/10 01:39:20;;;;;;;5.53;3.10;;;;;;;13.38;46.94;99960.53;7793641;32;39930;-86
2023/05/10 01:44:14;;;;;;;7.60;3.30;;;;;;;13.25;47.50;99965.53;7780022;32;38689;-87
2023/05/10 01:48:31;;;;;;;5.20;3.00;;;;;;;13.19;47.67;99961.16;7768791;32;37154;-87
2023/05/10 01:52:54;;;;;;;7.00;3.70;;;;;;;13.20;47.51;99970.22;7766335;32;39448;-87
2023/05/10 01:57:13;;;;;;;8.57;3.70;;;;;;;13.01;47.99;99978.28;7753106;32;40892;-87
2023/05/10 02:01:30;;;;;;;4.97;3.12;;;;;;;12.77;48.71;99968.03;7766757;32;38585;-88
2023/05/10 02:05:48;;;;;;;6.95;3.15;;;;;;;12.89;48.71;99968.50;7778066;32;37267;-87
2023/05/10 02:10:09;;;;;;;7.18;3.35;;;;;;;12.94;48.72;99963.00;7792983;32;40023;-87
2023/05/10 02:14:26;;;;;;;4.65;3.03;;;;;;;12.80;49.12;99972.09;7793219;32;39836;-87
2023/05/10 02:18:43;;;;;;;5.90;3.67;;;;;;;12.58;49.79;99959.62;7779341;32;37926;-86
2023/05/10 02:23:01;;;;;;;6.35;3.83;;;;;;;12.35;50.69;99956.47;7793123;32;37546;-87
2023/05/10 02:27:19;;;;;;;5.72;3.58;;;;;;;12.56;50.31;99957.19;7772260;32;40644;-84
2023/05/10 02:31:38;;;;;;;7.03;3.67;;;;;;;12.56;50.50;99962.66;7752164;32;39969;-85
2023/05/10 02:35:55;;;;;;;7.28;3.25;;;;;;;12.64;50.53;99953.06;7752143;32;38002;-85
2023/05/10 02:40:12;;;;;;;6.85;3.58;;;;;;;12.55;51.37;99957.47;7751951;32;36838;-87
2023/05/10 02:44:30;;;;;;;6.00;3.37;;;;;;;12.72;51.05;99949.72;7751854;32;39325;-84
2023/05/10 02:48:47;;;;;;;5.43;3.15;;;;;;;12.84;51.09;99956.78;7750828;32;39870;-87
2023/05/10 02:53:30;;;;;;;4.93;3.03;;;;;;;12.91;52.07;99954.53;7751623;32;37766;-88
2023/05/10 02:57:54;;;;;;;6.70;3.42;;;;;;;13.03;50.98;99952.25;7775718;32;37071;-88
2023/05/10 03:02:12;;;;;;;5.15;3.20;;;;;;;13.07;51.12;99961.56;7779119;32;40106;-88
2023/05/10 03:06:28;;;;;;;7.03;3.12;;;;;;;12.88;51.29;99964.13;7778769;32;41505;-88
2023/05/10 03:11:03;;;;;;;5.28;3.22;;;;;;;12.82;51.77;99957.03;7792307;32;37985;-88
2023/05/10 03:15:28;;;;;;;8.35;3.60;;;;;;;13.10;51.30;99954.69;7792566;32;37816;-88
2023/05/10 03:19:53;;;;;;;3.42;2.37;;;;;;;13.09;51.57;99948.41;7774570;32;40105;-88
2023/05/10 03:24:12;;;;;;;5.30;3.12;;;;;;;13.09;51.52;99953.03;7765200;32;39872;-87
2023/05/10 03:28:28;;;;;;;8.77;3.60;;;;;;;12.99;52.01;99943.00;7764980;32;37873;-88
2023/05/10 03:32:45;;;;;;;9.32;3.60;;;;;;;13.20;51.86;99940.09;7751173;32;37418;-87
2023/05/10 03:37:01;;;;;;;6.28;3.55;;;;;;;13.20;51.69;99951.06;7765009;32;39213;-88
2023/05/10 03:41:17;;;;;;;8.10;3.28;;;;;;;13.09;52.15;99947.56;7765193;32;39948;-87
2023/05/10 03:45:34;;;;;;;4.82;3.12;;;;;;;13.15;51.91;99947.25;7764970;32;37504;-87
2023/05/10 03:49:50;;;;;;;6.95;3.17;;;;;;;13.30;51.68;99943.56;7768094;32;37200;-87
2023/05/10 03:54:07;;;;;;;6.18;3.05;;;;;;;13.40;51.43;99937.25;7792098;32;39305;-87
2023/05/10 03:58:23;;;;;;;5.20;3.08;;;;;;;12.94;52.59;99948.50;7791802;32;39857;-87
2023/05/10 04:02:40;;;;;;;6.53;3.45;;;;;;;13.03;52.42;99943.25;7791862;32;37942;-88
2023/05/10 04:06:56;;;;;;;6.30;3.67;;;;;;;12.98;52.96;99943.28;7791695;32;37004;-87
2023/05/10 04:11:13;;;;;;;5.60;3.50;;;;;;;13.03;52.74;99949.53;7791659;32;39379;-88
2023/05/10 04:15:30;;;;;;;6.68;3.50;;;;;;;12.99;53.22;99937.53;7782968;32;40577;-88
2023/05/10 04:19:46;;;;;;;6.18;3.97;;;;;;;12.94;53.33;99951.22;7764419;32;37852;-87
2023/05/10 04:24:03;;;;;;;5.80;3.20;;;;;;;12.64;53.94;99950.31;7764424;32;37159;-88
2023/05/10 04:28:19;;;;;;;8.15;3.50;;;;;;;13.16;52.92;99948.06;7764257;32;39323;-87
2023/05/10 04:32:36;;;;;;;10.50;3.47;;;;;;;13.07;53.37;99950.59;7764136;32;39900;-88
2023/05/10 04:36:52;;;;;;;6.30;3.72;;;;;;;13.30;52.79;99949.06;7764028;32;37544;-88
2023/05/10 04:41:10;;;;;;;7.18;3.28;;;;;;;13.18;53.27;99951.34;7764112;32;37101;-87
2023/05/10 04:45:26;;;;;;;5.78;3.70;;;;;;;13.21;53.69;99945.31;7750744;32;39308;-87
2023/05/10 04:49:42;;;;;;;6.00;3.35;;;;;;;13.11;54.31;99954.41;7749747;32;40021;-87
2023/05/10 04:53:59;;;;;;;5.60;3.65;;;;;;;12.92;55.26;99953.44;7763589;32;38030;-87
2023/05/10 04:58:21;;;;;;;7.30;3.77;;;;;;;12.98;55.03;99956.94;7763634;32;38177;-87
2023/05/10 05:02:38;;;;;;;6.28;3.78;;;;;;;13.46;53.84;99936.06;7763585;32;39938;-88
2023/05/10 05:06:55;;;;;;;7.82;3.62;;;;;;;13.23;54.45;99954.03;7763319;32;41069;-87
2023/05/10 05:11:11;;;;;;;5.95;3.55;;;;;;;13.49;54.02;99960.16;7777625;32;37890;-86
2023/05/10 05:15:27;;;;;;;7.80;3.60;;;;;;;13.82;53.01;99957.66;7793927;32;36995;-87
2023/05/10 05:19:44;;;;;;;6.25;3.85;;;;;;;14.04;52.61;99950.88;7794013;32;39883;-86
2023/05/10 05:24:00;;;;;;;6.07;3.45;;;;;;;13.70;53.56;99949.81;7793790;32;40480;-85
2023/05/10 05:28:16;;;;;;;7.10;3.90;;;;;;;14.02;52.85;99953.06;7793708;32;38789;-87
2023/05/10 05:32:34;;;;;;;9.35;3.83;;;;;;;14.06;52.69;99945.91;7782995;32;37144;-87
2023/05/10 05:36:50;;;;;;;6.30;3.35;;;;;;;14.47;51.60;99948.16;7766684;32;40145;-88
2023/05/10 05:41:07;;;;;;;7.87;3.60;;;;;;;14.45;51.79;99953.09;7766346;32;40779;-87
2023/05/10 05:45:23;;;;;;;6.57;3.70;;;;;;;14.56;51.64;99962.03;7792919;32;37880;-88
2023/05/10 05:49:39;;;;;;;5.62;3.17;;;;;;;14.70;50.95;99951.19;7793553;32;37053;-87
2023/05/10 05:53:56;;;;;;;5.82;3.22;;;;;;;14.37;51.91;99953.78;7793503;32;39893;-88
2023/05/10 05:58:12;;;;;;;6.85;3.42;;;;;;;14.90;50.21;99966.53;7793413;32;39484;-87
2023/05/10 06:02:28;;;;;;;6.90;3.37;;;;;;;14.56;50.55;99968.34;7793365;32;38812;-88
2023/05/10 06:06:45;;;;;;;5.57;3.25;;;;;;;14.81;49.48;99969.13;7791772;32;37476;-88
2023/05/10 06:11:02;;;;;;;6.85;3.50;;;;;;;15.37;48.41;99971.06;7792964;32;39433;-87
2023/05/10 06:15:18;;;;;;;7.10;3.58;;;;;;;15.73;48.07;99962.22;7790120;32;39589;-88
2023/05/10 06:19:34;;;;;;;8.38;4.10;;;;;;;15.79;48.10;99970.37;7765739;32;37903;-89
2023/05/10 06:23:51;;;;;;;6.25;3.80;;;;;;;15.79;47.87;99970.37;7764343;32;38107;-88
2023/05/10 06:28:07;;;;;;;6.68;3.45;;;;;;;15.24;49.03;99969.06;7765780;32;39290;-88
2023/05/10 06:32:23;;;;;;;7.90;3.80;;;;;;;15.99;47.87;99967.28;7765592;32;40016;-89
2023/05/10 06:36:40;;;;;;;8.50;3.83;;;;;;;15.84;47.34;99964.81;7764262;32;38450;-88
2023/05/10 06:40:56;;;;;;;5.82;3.55;;;;;;;16.36;46.48;99973.69;7762266;32;37655;-87
2023/05/10 06:45:14;;;;;;;7.93;3.60;;;;;;;16.18;47.10;99975.44;7762676;32;40584;-75
2023/05/10 06:49:31;;;;;;;5.28;3.62;;;;;;;16.38;47.28;99971.44;7763906;32;41225;-75
2023/05/10 06:53:47;;;;;;;7.62;3.92;;;;;;;16.32;47.07;99970.75;7777630;32;39205;-75
2023/05/10 06:58:04;;;;;;;9.90;3.97;;;;;;;16.26;45.17;99971.16;7769462;32;36759;-75
2023/05/10 07:02:20;;;;;;;8.65;3.90;;;;;;;16.82;44.99;99963.66;7776606;32;39471;-88
2023/05/10 07:06:37;;;;;;;8.73;3.40;;;;;;;16.90;45.50;99962.94;7765533;32;39928;-74
2023/05/10 07:10:53;;;;;;;6.90;3.53;;;;;;;16.98;47.26;99973.22;7765056;32;37611;-71
2023/05/10 07:15:10;;;;;;;8.10;3.53;;;;;;;17.24;45.64;99969.87;7768437;32;37111;-72
2023/05/10 07:19:26;;;;;;;9.43;3.25;;;;;;;17.44;43.43;99963.87;7791735;32;39014;-71
2023/05/10 07:23:42;;;;;;;7.05;3.95;;;;;;;16.96;45.52;99971.94;7791857;32;39977;-87
2023/05/10 07:28:00;;;;;;;7.10;3.80;;;;;;;17.11;44.87;99976.25;7769077;32;37656;-87
2023/05/10 07:32:16;;;;;;;6.82;3.33;;;;;;;16.99;44.18;99969.38;7764787;32;36997;-86
2023/05/10 07:36:32;;;;;;;10.00;3.90;;;;;;;17.01;44.35;99963.56;7765264;32;39386;-87
2023/05/10 07:40:49;;;;;;;6.82;3.72;;;;;;;17.33;45.58;99961.69;7765089;32;39900;-71
2023/05/10 07:45:06;;;;;;;6.12;3.65;;;;;;;17.85;44.27;99953.75;7764977;32;37799;-87
2023/05/10 07:49:24;;;;;;;16.50;4.40;;;;;;;17.74;44.41;99957.91;7764714;32;36958;-87
2023/05/10 07:53:40;;;;;;;12.45;8.85;;;;;;;18.19;44.03;99955.06;7763410;32;40031;-87
2023/05/10 07:57:56;;;;;;;12.82;5.95;;;;;;;17.85;43.74;99964.78;7777331;32;40905;-88
2023/05/10 08:02:12;;;;;;;8.90;4.87;;;;;;;17.61;44.32;99963.19;7791864;32;37945;-87
2023/05/10 08:06:29;;;;;;;8.13;5.22;;;;;;;17.58;45.16;99961.06;7786005;32;187753;-87
2023/05/10 08:10:46;;;;;;;9.48;5.97;;;;;;;17.76;43.25;99958.41;7789574;32;39168;-88
2023/05/10 08:15:03;;;;;;;9.63;4.72;;;;;;;17.98;43.62;99955.63;7788491;32;40046;-86
2023/05/10 08:19:21;;;;;;;11.57;6.03;;;;;;;17.74;44.27;99966.97;7764403;32;37820;-87
2023/05/10 08:23:37;;;;;;;9.75;6.95;;;;;;;17.71;44.81;99961.28;7760758;32;37808;-87
2023/05/10 08:27:53;;;;;;;8.65;5.20;;;;;;;17.73;44.19;99950.75;7790010;32;39414;-88
2023/05/10 08:32:10;;;;;;;7.35;4.05;;;;;;;17.45;44.73;99960.00;7791362;32;39720;-89
2023/05/10 08:36:27;;;;;;;7.95;4.20;;;;;;;18.26;43.85;99955.41;7781472;32;38858;-86
2023/05/10 08:40:44;;;;;;;10.55;3.92;;;;;;;18.59;42.73;99952.25;7764164;32;37907;-88
2023/05/10 08:45:01;;;;;;;8.95;3.75;;;;;;;18.91;41.33;99953.00;7766206;32;39513;-86
2023/05/10 08:49:19;;;;;;;8.65;3.60;;;;;;;18.99;40.73;99966.00;7789903;32;39694;-88
2023/05/10 08:53:36;;;;;;;7.65;3.67;;;;;;;19.06;40.71;99958.03;7788042;32;37666;-88
2023/05/10 08:57:53;;;;;;;7.35;3.30;;;;;;;19.35;38.66;99956.56;7787572;32;37711;-88
2023/05/10 09:02:11;;;;;;;9.20;3.50;;;;;;;18.96;39.92;99952.84;7773722;32;39690;-88
2023/05/10 09:06:28;;;;;;;5.62;3.20;;;;;;;19.06;41.31;99943.41;7763821;32;40191;-86
2023/05/10 09:10:47;;;;;;;7.40;3.80;;;;;;;19.46;39.60;99955.06;7772909;32;37999;-83
2023/05/10 09:15:04;;;;;;;6.55;3.37;;;;;;;18.91;40.15;99964.03;7766323;32;37362;-87
2023/05/10 09:19:21;;;;;;;7.55;3.60;;;;;;;19.67;39.81;99948.88;7764752;32;39226;-85
2023/05/10 09:23:37;;;;;;;12.05;3.62;;;;;;;19.66;39.24;99950.81;7761951;32;39935;-85
2023/05/10 09:27:54;;;;;;;5.43;3.50;;;;;;;19.94;38.66;99952.38;7771226;32;38101;-86
2023/05/10 09:32:11;;;;;;;6.72;3.30;;;;;;;19.94;39.56;99955.16;7782792;32;37274;-87
2023/05/10 09:36:28;;;;;;;5.55;3.40;;;;;;;20.39;39.92;99949.91;7764991;32;39429;-87
2023/05/10 09:40:56;;;;;;;5.70;3.17;;;;;;;20.10;37.24;99947.13;7770474;32;39874;-87
2023/05/10 09:45:12;;;;;;;7.68;3.60;;;;;;;20.10;38.80;99939.63;7765244;32;38624;-88
2023/05/10 09:49:29;;;;;;;6.25;3.28;;;;;;;20.31;39.40;99947.19;7780491;32;37132;-88
2023/05/10 09:53:46;;;;;;;6.30;3.15;;;;;;;20.11;39.43;99946.81;7789090;32;39446;-86
2023/05/10 09:58:02;;;;;;;7.65;3.00;;;;;;;20.35;38.79;99937.91;7785600;32;40519;-88
2023/05/10 10:02:19;;;;;;;3.83;2.90;;;;;;;20.68;38.40;99925.31;7768844;32;38680;-87
2023/05/10 10:06:39;;;;;;;5.53;3.17;;;;;;;20.08;37.83;99939.16;7775224;32;37015;-86
2023/05/10 10:10:56;;;;;;;6.50;3.25;;;;;;;20.51;39.03;99940.09;7766836;32;39900;-89
2023/05/10 10:15:12;;;;;;;5.20;2.80;;;;;;;20.49;36.04;99934.88;7762136;32;39563;-86
2023/05/10 10:19:35;;;;;;;6.87;3.08;;;;;;;20.57;37.32;99928.47;7784820;32;37952;-73
2023/05/10 10:23:52;;;;;;;9.98;3.50;;;;;;;20.21;38.61;99927.06;7754475;32;36742;-83
2023/05/10 10:28:49;;;;;;;6.03;2.62;;;;;;;20.62;37.63;99919.19;7778317;32;40192;-86
2023/05/10 10:33:44;;;;;;;4.12;2.67;;;;;;;20.38;36.90;99919.78;7767883;32;40591;-87
2023/05/10 10:38:03;;;;;;;4.62;2.60;;;;;;;20.80;37.52;99908.81;7774495;32;38623;-88
2023/05/10 10:42:49;;;;;;;8.65;2.90;;;;;;;21.08;35.14;99909.06;7792263;32;38266;-88
2023/05/10 10:47:11;;;;;;;3.90;2.50;;;;;;;21.25;36.41;99910.03;7785316;32;40499;-87
2023/05/10 10:51:31;;;;;;;3.83;2.50;;;;;;;21.89;35.51;99906.75;7767265;32;39619;-84
2023/05/10 10:55:48;;;;;;;2.80;2.35;;;;;;;21.63;35.33;99901.53;7782073;32;37935;-85
2023/05/10 11:00:24;;;;;;;5.53;2.30;;;;;;;22.33;33.99;99894.31;7766315;32;37018;-85
2023/05/10 11:04:46;;;;;;;7.62;2.50;;;;;;;22.41;33.27;99880.28;7777183;32;40222;-86
2023/05/10 11:09:10;;;;;;;4.32;2.30;;;;;;;22.38;31.51;99880.19;7768485;32;40822;-89
2023/05/10 11:13:30;;;;;;;3.83;2.30;;;;;;;23.01;31.65;99871.34;7787822;32;38631;-91
2023/05/10 11:17:51;;;;;;;4.62;2.53;;;;;;;21.89;32.72;99875.44;7770523;32;37820;-90
2023/05/10 11:22:14;;;;;;;4.05;2.35;;;;;;;22.68;32.18;99870.41;7751242;32;39814;-90
2023/05/10 11:26:37;;;;;;;3.05;2.28;;;;;;;23.24;31.58;99855.72;7749973;32;39944;-89
2023/05/10 11:30:54;;;;;;;2.97;1.98;;;;;;;23.21;30.61;99855.63;7764179;32;38740;-89
2023/05/10 11:35:11;;;;;;;3.33;2.25;;;;;;;23.62;29.17;99848.75;7761960;32;37148;-89
2023/05/10 11:39:29;;;;;;;4.53;1.95;;;;;;;23.45;30.18;99843.53;7761998;32;39583;-88
2023/05/10 11:43:51;;;;;;;3.50;2.15;;;;;;;23.54;28.80;99846.16;7761816;32;39930;-90
2023/05/10 11:48:08;;;;;;;4.93;1.80;;;;;;;23.35;28.30;99833.78;7761901;32;37762;-89
2023/05/10 11:52:24;;;;;;;3.90;2.15;;;;;;;23.29;30.20;99845.50;7762677;32;36671;-89
2023/05/10 11:56:41;;;;;;;2.45;1.70;;;;;;;24.32;29.87;99829.78;7765219;32;40207;-89
2023/05/10 12:00:58;;;;;;;4.43;1.83;;;;;;;24.33;26.75;99831.38;7751289;32;39924;-88
2023/05/10 12:05:15;;;;;;;4.75;1.60;;;;;;;24.11;27.01;99830.06;7764794;32;38384;-89
2023/05/10 12:09:32;;;;;;;5.65;1.80;;;;;;;23.56;28.45;99839.06;7751379;32;35394;-89
2023/05/10 12:13:58;;;;;;;3.80;1.90;;;;;;;23.71;28.74;99828.28;7765055;32;40138;-90
2023/05/10 12:18:22;;;;;;;2.78;1.60;;;;;;;24.53;27.62;99830.22;7764646;32;40287;-89
2023/05/10 12:22:38;;;;;;;3.92;1.75;;;;;;;25.07;28.19;99831.34;7764722;32;37976;-90
2023/05/10 12:26:55;;;;;;;6.45;1.87;;;;;;;25.44;25.82;99835.63;7750911;32;37821;-89
2023/05/10 12:31:28;;;;;;;2.78;1.70;;;;;;;24.45;26.14;99836.00;7764512;32;40152;-90
2023/05/10 12:35:48;;;;;;;3.22;1.75;;;;;;;24.25;27.78;99838.78;7764538;32;40017;-90
2023/05/10 12:40:07;;;;;;;2.60;1.95;;;;;;;23.34;28.32;99837.72;7764243;32;39495;-90
2023/05/10 12:44:24;;;;;;;2.28;1.70;;;;;;;23.12;29.14;99830.75;7750402;32;37542;-90
2023/05/10 12:48:41;;;;;;;2.42;1.75;;;;;;;23.29;28.53;99829.62;7737548;32;39394;-90
2023/05/10 12:52:57;;;;;;;4.18;1.80;;;;;;;22.66;30.31;99819.94;7763847;32;39713;-88
2023/05/10 12:57:14;;;;;;;2.62;1.80;;;;;;;23.05;29.03;99819.41;7763785;32;37617;-90
2023/05/10 13:01:30;;;;;;;3.30;2.10;;;;;;;22.98;29.56;99808.91;7763772;32;37072;-89
2023/05/10 13:05:47;;;;;;;2.25;1.87;;;;;;;22.77;32.06;99795.22;7763861;32;39282;-90
2023/05/10 13:10:03;;;;;;;2.37;1.77;;;;;;;23.17;28.98;99799.91;7763449;32;39940;-89
2023/05/10 13:14:23;;;;;;;3.08;1.87;;;;;;;23.32;29.79;99789.16;7763295;32;38021;-90
2023/05/10 13:18:39;;;;;;;4.57;2.17;;;;;;;24.00;27.54;99790.84;7737188;32;37023;-90
2023/05/10 13:22:55;;;;;;;5.50;1.85;;;;;;;24.15;27.18;99786.41;7763241;32;39294;-90
2023/05/10 13:27:11;;;;;;;9.73;1.98;;;;;;;23.78;29.08;99778.38;7763101;32;40021;-89
2023/05/10 13:31:28;;;;;;;4.78;1.80;;;;;;;23.61;28.13;99771.19;7764390;32;37729;-89
2023/05/10 13:35:44;;;;;;;3.67;1.95;;;;;;;22.49;29.51;99786.88;7752988;32;37251;-90
2023/05/10 13:40:01;;;;;;;3.12;1.80;;;;;;;22.53;29.59;99781.44;7766929;32;39298;-90
2023/05/10 13:44:17;;;;;;;2.87;1.80;;;;;;;22.22;29.49;99788.44;7766741;32;40838;-89
2023/05/10 13:48:34;;;;;;;4.57;1.65;;;;;;;21.66;29.61;99777.94;7766540;32;38563;-90
2023/05/10 13:52:53;;;;;;;2.62;1.75;;;;;;;21.99;30.27;99775.06;7766793;32;36145;-89
2023/05/10 13:57:11;;;;;;;2.70;1.62;;;;;;;21.20;30.29;99775.22;7766496;32;39485;-89
2023/05/10 14:01:27;;;;;;;2.42;1.70;;;;;;;21.28;31.72;99768.75;7766658;32;41310;-89
2023/05/10 14:05:45;;;;;;;3.10;1.62;;;;;;;21.29;31.83;99758.50;7766319;32;37556;-90
2023/05/10 14:10:01;;;;;;;3.65;1.70;;;;;;;21.66;31.07;99762.13;7766103;32;36977;-89
2023/05/10 14:14:17;;;;;;;2.00;1.40;;;;;;;21.78;30.56;99749.41;7766112;32;39254;-90
2023/05/10 14:18:33;;;;;;;1.65;1.40;;;;;;;22.31;29.33;99751.03;7766276;32;39622;-90
2023/05/10 14:22:50;;;;;;;2.20;1.70;;;;;;;22.32;28.65;99746.31;7766061;32;37648;-89
2023/05/10 14:27:06;;;;;;;3.17;1.52;;;;;;;22.94;28.54;99743.25;7766080;32;36983;-89
2023/05/10 14:31:24;;;;;;;6.03;1.75;;;;;;;22.93;28.53;99739.66;7766023;32;40035;-88
2023/05/10 14:35:40;;;;;;;2.17;1.70;;;;;;;23.79;28.44;99727.13;7765870;32;40859;-90
2023/05/10 14:39:57;;;;;;;4.53;1.70;;;;;;;23.81;28.59;99716.44;7766192;32;37486;-90
2023/05/10 14:44:15;;;;;;;3.53;1.70;;;;;;;22.83;28.71;99729.88;7764997;32;37029;-89
2023/05/10 14:48:31;;;;;;;3.12;2.00;;;;;;;21.29;30.88;99730.78;7765439;32;39373;-90
2023/05/10 14:52:47;;;;;;;4.50;1.95;;;;;;;22.15;29.29;99732.69;7765722;32;41616;-89
2023/05/10 14:57:03;;;;;;;2.28;1.73;;;;;;;21.88;30.06;99724.75;7765692;32;37931;-89
2023/05/10 15:01:20;;;;;;;2.65;1.70;;;;;;;21.68;29.87;99726.53;7765787;32;37214;-90
2023/05/10 15:05:37;;;;;;;5.32;1.90;;;;;;;22.02;29.11;99723.56;7765850;32;40104;-89
2023/05/10 15:09:54;;;;;;;2.70;1.60;;;;;;;22.02;30.04;99732.69;7765461;32;40096;-89
2023/05/10 15:14:10;;;;;;;2.60;1.42;;;;;;;22.50;28.38;99725.41;7765445;32;37596;-91
2023/05/10 15:18:26;;;;;;;2.17;1.50;;;;;;;22.00;28.48;99728.66;7765520;32;36722;-89
2023/05/10 15:22:42;;;;;;;2.75;1.58;;;;;;;22.40;29.29;99725.91;7765926;32;40072;-91
2023/05/10 15:26:58;;;;;;;3.80;1.60;;;;;;;22.06;29.66;99730.03;7765414;32;40004;-90
2023/05/10 15:31:15;;;;;;;5.20;1.60;;;;;;;22.04;30.75;99727.63;7765345;32;37918;-89
2023/05/10 15:35:31;;;;;;;3.78;1.87;;;;;;;21.01;32.45;99726.69;7765249;32;37062;-90
2023/05/10 15:39:47;;;;;;;2.05;1.70;;;;;;;21.66;32.42;99731.63;7765251;32;39461;-90
2023/05/10 15:44:03;;;;;;;4.28;2.17;;;;;;;21.27;32.63;99730.31;7765372;32;41296;-91
2023/05/10 15:48:20;;;;;;;5.22;2.28;;;;;;;21.39;32.78;99730.31;7765231;32;38680;-90
2023/05/10 15:52:36;;;;;;;9.80;4.43;;;;;;;21.13;33.05;99727.88;7765034;32;36905;-89
2023/05/10 15:56:53;;;;;;;2.97;2.30;;;;;;;20.70;34.00;99727.19;7764853;32;39442;-90
2023/05/10 16:01:13;;;;;;;9.48;2.83;;;;;;;21.11;33.56;99728.22;7751329;32;40674;-89
2023/05/10 16:05:32;;;;;;;7.32;2.50;;;;;;;20.77;33.56;99721.09;7764904;32;38523;-90
2023/05/10 16:09:48;;;;;;;4.70;2.50;;;;;;;20.68;33.12;99717.59;7764750;32;37137;-89
2023/05/10 16:14:05;;;;;;;9.40;3.58;;;;;;;20.60;34.31;99717.31;7750904;32;39378;-89
2023/05/10 16:18:22;;;;;;;3.95;1.90;;;;;;;20.62;33.54;99717.81;7764682;32;40479;-90
2023/05/10 16:22:39;;;;;;;4.18;1.85;;;;;;;20.64;33.30;99723.00;7764711;32;38737;-90
2023/05/10 16:26:55;;;;;;;7.35;2.10;;;;;;;20.15;34.30;99720.81;7764586;32;37374;-90
2023/05/10 16:31:12;;;;;;;4.20;2.10;;;;;;;20.17;34.33;99731.56;7764486;32;40186;-91
2023/05/10 16:35:29;;;;;;;6.25;2.10;;;;;;;20.45;34.07;99723.47;7764362;32;40822;-90
2023/05/10 16:39:45;;;;;;;4.35;1.85;;;;;;;20.32;34.24;99724.59;7764320;32;38823;-90
2023/05/10 16:44:02;;;;;;;2.62;1.80;;;;;;;20.33;34.51;99718.69;7764302;32;36854;-90
2023/05/10 16:48:18;;;;;;;10.27;2.10;;;;;;;19.99;35.65;99733.63;7764137;32;40161;-89
2023/05/10 16:52:36;;;;;;;4.40;2.10;;;;;;;20.16;35.47;99741.00;7763943;32;40102;-89
2023/05/10 16:56:52;;;;;;;4.62;2.10;;;;;;;20.14;35.74;99735.78;7763838;32;37563;-89
2023/05/10 17:01:08;;;;;;;4.90;2.12;;;;;;;19.78;36.91;99748.25;7763869;32;37039;-90
2023/05/10 17:05:25;;;;;;;3.00;2.17;;;;;;;20.02;35.83;99753.16;7764154;32;40302;-89
2023/05/10 17:09:42;;;;;;;4.80;2.62;;;;;;;19.71;37.12;99747.94;7766922;32;39599;-90
2023/05/10 17:14:00;;;;;;;8.45;2.95;;;;;;;19.65;37.01;99754.81;7766834;32;38614;-89
2023/05/10 17:18:16;;;;;;;2.87;2.00;;;;;;;19.67;37.06;99752.50;7766979;32;37000;-90
2023/05/10 17:22:33;;;;;;;4.07;1.85;;;;;;;19.61;37.07;99759.38;7766979;32;40014;-89
2023/05/10 17:26:49;;;;;;;4.07;2.15;;;;;;;19.78;37.00;99758.50;7766829;32;39897;-91
2023/05/10 17:31:05;;;;;;;2.70;2.10;;;;;;;19.63;37.00;99768.16;7766715;32;38471;-89
2023/05/10 17:35:22;;;;;;;4.22;2.00;;;;;;;19.41;36.91;99767.28;7766817;32;37727;-90
2023/05/10 17:39:39;;;;;;;4.70;2.10;;;;;;;19.19;37.68;99770.28;7766748;32;40112;-90
2023/05/10 17:43:55;;;;;;;4.10;1.73;;;;;;;19.36;36.88;99778.50;7766857;32;40769;-89
2023/05/10 17:48:12;;;;;;;3.28;2.08;;;;;;;19.22;36.77;99770.44;7766405;32;37899;-89
2023/05/10 17:52:28;;;;;;;2.95;1.98;;;;;;;19.24;36.67;99770.09;7766499;32;37956;-90
2023/05/10 17:56:48;;;;;;;2.47;1.80;;;;;;;18.94;36.79;99770.03;7766575;32;39038;-91
2023/05/10 18:01:05;;;;;;;4.30;2.20;;;;;;;18.90;36.65;99780.09;7766669;32;39854;-91
2023/05/10 18:05:21;;;;;;;3.62;2.08;;;;;;;18.99;36.83;99778.16;7766315;32;37984;-90
2023/05/10 18:09:38;;;;;;;4.47;2.40;;;;;;;18.60;37.46;99790.19;7766189;32;37066;-89
2023/05/10 18:13:55;;;;;;;3.22;2.00;;;;;;;18.54;37.63;99789.53;7766203;32;39301;-90
2023/05/10 18:18:11;;;;;;;3.85;1.90;;;;;;;18.29;38.23;99789.19;7752241;32;39882;-89
2023/05/10 18:22:27;;;;;;;6.90;2.10;;;;;;;18.38;37.99;99797.47;7766057;32;37982;-91
2023/05/10 18:26:44;;;;;;;4.50;2.00;;;;;;;18.29;38.42;99797.47;7766176;32;36928;-89
2023/05/10 18:31:00;;;;;;;4.37;2.10;;;;;;;18.15;38.92;99802.34;7766143;32;39294;-91
2023/05/10 18:35:16;;;;;;;3.60;2.08;;;;;;;18.43;38.29;99804.81;7772582;32;40854;-86
2023/05/10 18:39:35;;;;;;;3.58;2.17;;;;;;;17.90;39.37;99809.41;7773284;32;38715;-89
2023/05/10 18:43:52;;;;;;;4.35;2.10;;;;;;;17.93;39.35;99817.84;7765542;32;36970;-86
2023/05/10 18:48:08;;;;;;;2.83;1.95;;;;;;;17.86;39.33;99817.53;7776665;32;39295;-87
2023/05/10 18:52:25;;;;;;;3.95;2.20;;;;;;;17.87;38.98;99824.66;7776266;32;40185;-87
2023/05/10 18:56:43;;;;;;;7.18;2.12;;;;;;;17.86;38.89;99825.78;7770980;32;37788;-86
2023/05/10 19:01:00;;;;;;;2.83;1.92;;;;;;;17.64;41.68;99827.47;7773230;32;36747;-87
2023/05/10 19:05:16;;;;;;;4.05;2.22;;;;;;;17.55;40.54;99832.13;7780110;32;39237;-86
2023/05/10 19:09:33;;;;;;;4.60;2.30;;;;;;;17.37;40.52;99841.47;7782699;32;40903;-87
2023/05/10 19:13:50;;;;;;;4.10;2.08;;;;;;;17.49;40.20;99843.59;7764877;32;39054;-85
2023/05/10 19:18:06;;;;;;;3.00;2.20;;;;;;;17.34;40.60;99839.34;7771327;32;38826;-86
2023/05/10 19:22:24;;;;;;;4.12;2.30;;;;;;;17.40;40.54;99838.06;7780593;32;38415;-83
2023/05/10 19:27:02;;;;;;;3.83;2.40;;;;;;;17.46;40.45;99845.88;7789840;32;40936;-84
2023/05/10 19:31:19;;;;;;;8.18;2.58;;;;;;;17.10;41.22;99848.75;7791728;32;37947;-85
2023/05/10 19:35:36;;;;;;;5.87;2.28;;;;;;;17.05;41.35;99848.87;7787202;32;36695;-88
2023/05/10 19:39:53;;;;;;;5.05;2.22;;;;;;;17.10;41.09;99848.75;7770115;32;39280;-88
2023/05/10 19:44:09;;;;;;;4.53;2.17;;;;;;;16.94;41.30;99853.81;7791692;32;40915;-88
2023/05/10 19:48:26;;;;;;;4.95;2.20;;;;;;;17.06;40.81;99842.25;7776858;32;37984;-88
2023/05/10 19:52:43;;;;;;;4.12;2.35;;;;;;;16.65;41.81;99851.47;7763584;32;37655;-86
2023/05/10 19:56:59;;;;;;;3.78;2.17;;;;;;;16.73;41.21;99845.22;7770867;32;39404;-85
2023/05/10 20:01:16;;;;;;;4.90;2.10;;;;;;;16.67;41.30;99847.25;7779413;32;40573;-84
2023/05/10 20:05:32;;;;;;;7.82;2.42;;;;;;;16.68;41.01;99850.84;7777014;32;37818;-88
2023/05/10 20:09:48;;;;;;;3.87;1.70;;;;;;;16.55;41.41;99848.94;7764196;32;37063;-86
2023/05/10 20:14:05;;;;;;;3.70;2.08;;;;;;;16.47;41.56;99847.72;7761464;32;40094;-86
2023/05/10 20:18:21;;;;;;;2.70;2.00;;;;;;;16.49;41.25;99854.56;7762654;32;40833;-86